Racecast

Ross Alexander

East Rowan (NC) · 12 · SPCNC D5AROWAN · Compare head to head

Athlete rating 113.9 2018 TF season
Best race 120.9 XC
Races 75
Seasons 5 2014 — 2018

RankedNation #42973·NC #960·NC D5A #352·SPC #19·Team #2 ?

Speed rating — all races

Cross Country

XC speed rating

2017 XC 114.9

East Rowan (NC) · Grade 12

Date Meet Event Result Place Rating Difficulty PR/SR Flags
2017-10-28 McAlpine Creek Park 5000m 18:31.9 68th · 3rd on team 111.5 +0.002
2017-10-14 Ivey Redmon Sports Complex 5000m 17:43.2 25th · 2nd on team 116.2 +0.010 ★CR CSR
2017-10-11 Southside Park 5000m 18:30.9 27th · 2nd on team 112.8 +0.004 CSR
2017-09-16 Pfeiffer University 5000m 17:51 8th · 2nd on team 116.3 +0.009 ★CR CSR
2017-09-14 McAnderson Park 5000m 17:26.5 12th · 2nd on team 118.5 +0.014 ★PR ★CR SR CSR RSR
2017-08-26 McAlpine Creek Park 5000m 18:01.1 28th · 2nd on team 113.9 +0.002 SR CSR RSR

2016 XC 115.8

East Rowan (NC) · Grade 11

Date Meet Event Result Place Rating Difficulty PR/SR Flags
2016-10-29 McAlpine Creek Park 5000m 17:48 46th · 2nd on team 116.7 +0.002 PR ★CR SR CSR
2016-10-18 Salisbury Community Park 5000m 18:23 13th · 2nd on team 117.8 +0.042 ★CR CSR
2016-10-12 Southside Park 5000m 17:59.5 53rd · 3rd on team 115.1 +0.004 ★CR SR CSR
2016-10-08 Ivey Redmon Sports Complex 5000m 18:33.7 32nd · 2nd on team 120.9 +0.010 CR ★R CSR RSR
2016-10-01 McAlpine Creek Park 5000m 18:12.7 78th · 2nd on team 113.6 +0.002 SR CSR
2016-09-24 Hagan-Stone Park 5000m 18:22.9 43rd · 2nd on team 115.3 +0.003 SR CSR RSR
2016-08-30 West Rowan High School 5000m 20:15 25th · 4th on team 111.5 +0.099 ★CR SR CSR RSR

2015 XC 115.4

East Rowan (NC) · Grade 10

Date Meet Event Result Place Rating Difficulty PR/SR Flags
2015-09-26 Hagan-Stone Park 5000m 17:52.3 35th · 2nd on team 115.4 +0.003 PR ★CR R SR CSR RSR

2014 XC 112.0

East Rowan (NC) · Grade 9

Date Meet Event Result Place Rating Difficulty PR/SR Flags
2014-10-25 McAlpine Creek Park 5000m 18:01 71st · 4th on team 115.1 +0.002 PR CR R SR CSR RSR
2014-10-04 McAlpine Creek Park 5000m 18:37 83rd · 1st on team 110.8 +0.002 CR CSR
2014-09-27 Hagan-Stone Park 5000m 18:31.8 38th · 1st on team 112.4 +0.003 PR CR R SR CSR RSR
2014-09-16 Salisbury Community Park 5000m 19:14.1 29th · 8th on team 111.8 +0.042 CR R CSR RSR
2014-09-09 McAnderson Park 5000m 18:42.9 50th · 7th on team 110.8 +0.014 PR CR SR CSR
2014-08-23 McAlpine Creek Park 5000m 18:47 28th · 1st on team 111.2 +0.002 PR CR R SR CSR RSR

Track & Field

TF speed rating

2018 TF 109.7

East Rowan (NC) · Grade 12

Date Meet Event Result Place Rating Difficulty PR/SR Flags
2018-05-01 North Piedmont Conference Championships 3200m 11:29.45 6th · 2nd on team 108.6 -0.025 SR
2018-05-01 North Piedmont Conference Championships 1600m 4:54.86 6th · 2nd on team 117.1 -0.025
2018-04-24 Rowan County Track Championships 1600m 4:49.29 3rd · 2nd on team 118.9 -0.025 ★PR SR RSR
2018-04-24 Rowan County Track Championships 3200m 11:32.05 4th · 2nd on team 107.2 -0.025 SR
2018-04-19 East Rowan 4/19/2018 Meet 1600m 5:19.31 5th · 2nd on team 108.6 -0.025
2018-04-19 East Rowan 4/19/2018 Meet 800m 2:33.28 5th · 1st on team 100.6 -0.025
2018-04-12 West Rowan 4/12/18 1600m 5:21 2nd · 2nd on team 108.1 -0.017
2018-04-12 West Rowan 4/12/18 800m 2:24.8 2nd · 1st on team 106.6 -0.017
2018-03-27 East Rowan 3/27/2018 Meet 1600m 5:11.26 7th · 2nd on team 110.5 -0.025
2018-03-27 East Rowan 3/27/2018 Meet 800m 2:23.29 10th · 2nd on team 107.0 -0.025 SR
2018-03-22 South Iredell #1 1600m 5:25.1 9th · 3rd on team 107.0 -0.017
2018-03-22 South Iredell #1 1600m 5:00 4th · 2nd on team 115.9 -0.017 SR RSR
2018-03-15 East Rowan 3/15/2018 Meet 3200m 11:33.35 3rd · 2nd on team 108.1 -0.025 SR RSR
2018-03-15 East Rowan 3/15/2018 Meet 1600m 5:12.67 4th · 2nd on team 110.9 -0.025 SR RSR

2017 TF 110.2

East Rowan (NC) · Grade 11

Date Meet Event Result Place Rating Difficulty PR/SR Flags
2017-05-03 SPC Conference Championships 1600m 4:56.03 10th · 2nd on team 116.2 -0.025
2017-05-03 Southern Piedmont Conference Championship 1600m 4:56.03 10th · 2nd on team 116.2 -0.025
2017-05-03 SPC Conference Championships 3200m 11:19.72 12th · 2nd on team 109.8 -0.025
2017-05-03 Southern Piedmont Conference Championship 3200m 11:19.72 12th · 2nd on team 109.8 -0.025
2017-05-03 Southern Piedmont Conference Championship 800m 2:16.62 20th · 3rd on team 111.9 -0.025
2017-05-03 SPC Conference Championships 800m 2:16.62 20th · 3rd on team 111.9 -0.025
2017-04-29 SPC Super Make-up Meet 1600m 5:21 11th · 3rd on team 107.1 -0.025
2017-04-27 South Rowan 1600m 5:13 4th · 2nd on team 110.6 -0.019
2017-04-11 Rowan County Championships 3200m 11:00.59 3rd · 2nd on team 113.3 -0.025 SR RSR
2017-04-11 Rowan County Championships 800m 2:17.02 5th · 2nd on team 111.7 -0.025
2017-04-11 Rowan County Championships 1600m 4:53.56 4th · 2nd on team 117.4 -0.025 PR SR RSR
2017-04-06 East Rowan 4-6-2017 Track Meet 3200m 11:49.03 7th · 1st on team 106.2 -0.025
2017-04-06 East Rowan 4-6-2017 Track Meet 1600m 5:21.68 9th · 1st on team 107.8 -0.025
2017-03-22 East Rowan 3-22-2017 Track Meet 3200m 11:45.4 1st · 1st on team 105.7 -0.025 SR
2017-03-22 East Rowan 3-22-2017 Track Meet 800m 2:19.3 4th · 3rd on team 109.8 -0.025
2017-03-09 East Rowan 3-9-2017 Track Meet 800m 2:16.4 1st · 1st on team 111.9 -0.025 ★PR SR RSR
2017-03-09 East Rowan 3-9-2017 Track Meet 1600m 5:16.61 3rd · 2nd on team 108.6 -0.025 SR
2017-03-02 East Rowan Polar Bear 1600m 5:17.81 3rd · 2nd on team 108.7 -0.025 SR RSR
2017-03-02 East Rowan Polar Bear 800m 2:22.06 3rd · 2nd on team 108.1 -0.025 PR SR
2017-02-01 East Rowan Polar Bear #6 1600m 5:28.7 7th · 1st on team 104.1 -0.029
2016-12-07 East Rowan Polar Bear #1 1600m 5:18.6 9th · 1st on team 107.3 -0.029 SR RSR

2016 TF 109.6

East Rowan (NC) · Grade 10

Date Meet Event Result Place Rating Difficulty PR/SR Flags
2016-05-05 SPC Championships 3200m 10:49.74 13th · 2nd on team 114.5 -0.025 ★PR SR RSR
2016-05-05 SPC Championships 1600m 5:17.53 19th · 2nd on team 108.2 -0.025
2016-04-28 SPC Meet 3 1600m 5:08.5 5th · 2nd on team 112.1 -0.019 PR SR
2016-04-19 Rowan County Championship 3200m 11:03.16 8th · 2nd on team 112.8 -0.025 RSR
2016-04-13 East Rowan Meet #6 3200m 11:01.96 9th · 2nd on team 112.4 -0.025 PR SR RSR
2016-04-07 East Rowan Meet #5 3200m 11:14.5 2nd · 1st on team 110.7 -0.025
2016-03-22 East Rowan Meet #4 3200m 11:53.12 11th · 2nd on team 104.4 -0.025
2016-03-17 East Rowan Meet #3 3200m 11:10.99 3rd · 1st on team 111.2 -0.025 SR RSR
2016-03-10 East Rowan Meet #2 3200m 11:22.52 4th · 1st on team 109.4 -0.025 SR
2016-03-08 East Rowan Meet #1 3200m 11:44.01 1st · 1st on team 106.4 -0.025 SR
2016-02-03 East Rowan Polar Bear #7 1600m 5:30.9 6th · 2nd on team 103.3 -0.029
2015-12-16 East Rowan Polar Bear #3 1600m 5:10.2 4th · 2nd on team 110.7 -0.029 PR SR RSR
2015-12-09 East Rowan Polar Bear #2 1600m 5:17 10th · 2nd on team 108.3 -0.029 PR SR RSR

2015 TF 105.7

East Rowan (NC) · Grade 9

Date Meet Event Result Place Rating Difficulty PR/SR Flags
2015-04-22 SPC Championships 3200m 11:31.33 16th · 3rd on team 108.0 -0.025
2015-04-14 Rowan County Championsips 3200m 11:07.41 5th · 2nd on team 111.1 -0.025 PR SR RSR
2015-04-09 East Rowan #4-SR, CHS, CM, CC 3200m 11:37.38 6th · 4th on team 107.3 -0.025 PR SR RSR
2015-03-24 East Rowan #3- WR, CC, HR, CM 3200m 11:41.6 11th · 3rd on team 106.0 -0.025 PR SR
2015-03-12 East Rowan HS Meet #2 3200m 11:42.15 7th · 4th on team 106.4 -0.025 PR SR RSR
2015-03-09 East Rowan HS Meet #1 1600m 5:34 11th · 6th on team 103.3 -0.025 PR SR RSR
2015-03-09 East Rowan HS Meet #1 3200m 12:41 9th · 5th on team 97.8 -0.025 PR SR